createdAt,value
2023-01-29T00:01:54.392Z,23.98
2023-01-29T00:04:22.311Z,23.83
2023-01-29T00:06:49.163Z,26.05
2023-01-29T00:09:16.052Z,26.65
2023-01-29T00:11:42.813Z,26.90
2023-01-29T00:14:09.752Z,26.10
2023-01-29T00:16:36.932Z,25.30
2023-01-29T00:19:04.277Z,26.52
2023-01-29T00:21:32.317Z,25.42
2023-01-29T00:24:00.289Z,24.77
2023-01-29T00:26:27.902Z,25.15
2023-01-29T00:28:57.225Z,25.85
2023-01-29T00:31:25.383Z,24.75
2023-01-29T00:33:52.731Z,24.90
2023-01-29T00:36:21.215Z,24.80
2023-01-29T00:38:54.707Z,26.40
2023-01-29T00:41:40.717Z,27.83
2023-01-29T00:44:26.494Z,25.65
2023-01-29T00:46:53.548Z,25.42
2023-01-29T00:49:20.993Z,24.70
2023-01-29T00:52:07.868Z,26.58
2023-01-29T00:54:35.355Z,25.10
2023-01-29T00:57:03.552Z,25.25
2023-01-29T00:59:31.176Z,24.90
2023-01-29T01:02:16.834Z,24.77
2023-01-29T01:04:44.318Z,24.80
2023-01-29T01:07:18.236Z,24.10
2023-01-29T01:10:03.839Z,23.20
2023-01-29T01:12:31.482Z,24.52
2023-01-29T01:14:58.780Z,23.50
2023-01-29T01:17:26.335Z,23.50
2023-01-29T01:19:53.410Z,26.65
2023-01-29T01:22:20.320Z,23.42
2023-01-29T01:24:47.284Z,24.83
2023-01-29T01:27:14.358Z,26.05
2023-01-29T01:29:41.279Z,24.73
2023-01-29T01:32:08.449Z,26.40
2023-01-29T01:34:35.913Z,25.95
2023-01-29T01:37:03.610Z,26.13
2023-01-29T01:39:30.667Z,25.95
2023-01-29T01:41:57.767Z,25.13
2023-01-29T01:45:01.782Z,28.55
2023-01-29T01:47:35.382Z,27.90
2023-01-29T01:50:14.515Z,28.20
2023-01-29T01:52:47.182Z,29.48
2023-01-29T01:55:17.756Z,29.42
2023-01-29T01:57:47.974Z,28.42
2023-01-29T02:00:18.507Z,28.75
2023-01-29T02:03:05.202Z,29.85
2023-01-29T02:05:55.416Z,28.88
2023-01-29T02:08:51.017Z,28.85
2023-01-29T02:11:18.305Z,27.92
2023-01-29T02:13:45.147Z,29.08
2023-01-29T02:16:12.043Z,29.58
2023-01-29T02:18:39.608Z,28.65
2023-01-29T02:21:25.337Z,29.40
2023-01-29T02:24:18.840Z,30.77
2023-01-29T02:26:56.478Z,28.35
2023-01-29T02:29:30.636Z,29.45
2023-01-29T02:32:29.681Z,28.88
2023-01-29T02:35:29.975Z,28.70
2023-01-29T02:38:22.958Z,28.60
2023-01-29T02:40:55.657Z,28.98
2023-01-29T02:43:44.361Z,30.35
2023-01-29T02:46:35.121Z,28.73
2023-01-29T02:49:19.999Z,31.20
2023-01-29T02:52:14.173Z,30.95
2023-01-29T02:55:04.868Z,29.02
2023-01-29T02:57:38.145Z,29.65
2023-01-29T03:00:09.149Z,29.23
2023-01-29T03:02:48.191Z,28.83
2023-01-29T03:05:21.812Z,28.63
2023-01-29T03:07:56.620Z,28.58
2023-01-29T03:10:34.136Z,29.67
2023-01-29T03:13:14.856Z,32.20
2023-01-29T03:16:01.502Z,32.05
2023-01-29T03:18:34.450Z,29.83
2023-01-29T03:21:31.181Z,29.48
2023-01-29T03:24:19.052Z,29.60
2023-01-29T03:27:04.653Z,29.40
2023-01-29T03:29:53.442Z,29.33
2023-01-29T03:32:24.780Z,31.27
2023-01-29T03:34:57.733Z,30.77
2023-01-29T03:37:33.083Z,32.70
2023-01-29T03:40:00.041Z,29.73
2023-01-29T03:42:39.089Z,30.40
2023-01-29T03:45:19.783Z,29.20
2023-01-29T03:48:12.306Z,31.05
2023-01-29T03:50:45.389Z,28.98
2023-01-29T03:53:55.938Z,29.20
2023-01-29T03:56:50.990Z,30.52
2023-01-29T03:59:41.310Z,30.08
2023-01-29T04:02:38.259Z,30.25
2023-01-29T04:05:15.173Z,28.38
2023-01-29T04:07:44.701Z,31.00
2023-01-29T04:10:22.954Z,30.55
2023-01-29T04:13:01.875Z,30.65
2023-01-29T04:15:32.544Z,30.38
2023-01-29T04:17:59.900Z,31.02
2023-01-29T04:20:27.268Z,32.25
2023-01-29T04:22:54.345Z,32.33
2023-01-29T04:25:29.647Z,34.05
2023-01-29T04:27:59.665Z,32.47
2023-01-29T04:30:55.785Z,32.13
2023-01-29T04:33:36.060Z,32.08
2023-01-29T04:36:15.016Z,32.17
2023-01-29T04:38:54.602Z,31.55
2023-01-29T04:41:51.976Z,32.00
2023-01-29T04:44:21.779Z,32.22
2023-01-29T04:47:10.748Z,33.10
2023-01-29T04:49:53.998Z,33.10
2023-01-29T04:52:31.536Z,30.65
2023-01-29T04:55:08.261Z,31.58
2023-01-29T04:58:02.900Z,33.28
2023-01-29T05:00:42.035Z,31.98
2023-01-29T05:03:11.756Z,32.60
2023-01-29T05:05:42.728Z,33.72
2023-01-29T05:08:13.685Z,31.92
2023-01-29T05:10:42.455Z,30.77
2023-01-29T05:13:13.982Z,30.25
2023-01-29T05:16:01.913Z,31.20
2023-01-29T05:18:30.729Z,30.77
2023-01-29T05:21:01.579Z,31.52
2023-01-29T05:23:28.468Z,30.63
2023-01-29T05:25:57.254Z,30.15
2023-01-29T05:28:24.314Z,31.65
2023-01-29T05:30:53.569Z,31.25
2023-01-29T05:33:28.106Z,31.45
2023-01-29T05:35:55.954Z,32.42
2023-01-29T05:38:23.733Z,32.35
2023-01-29T05:40:50.730Z,32.55
2023-01-29T05:43:20.640Z,32.67
2023-01-29T05:45:54.818Z,31.52
2023-01-29T05:48:22.410Z,31.92
2023-01-29T05:50:49.788Z,32.53
2023-01-29T05:53:16.836Z,32.17
2023-01-29T05:55:49.806Z,33.35
2023-01-29T05:58:16.691Z,33.05
2023-01-29T06:00:43.538Z,33.63
2023-01-29T06:03:11.068Z,32.38
2023-01-29T06:05:39.289Z,32.22
2023-01-29T06:08:07.557Z,32.58
2023-01-29T06:10:37.371Z,32.38
2023-01-29T06:13:06.859Z,31.55
2023-01-29T06:15:33.704Z,32.53
2023-01-29T06:18:00.599Z,30.50
2023-01-29T06:20:27.531Z,31.67
2023-01-29T06:22:54.649Z,31.00
2023-01-29T06:25:21.530Z,31.27
2023-01-29T06:27:51.440Z,31.27
2023-01-29T06:30:18.793Z,32.45
2023-01-29T06:32:45.867Z,31.65
2023-01-29T06:35:15.919Z,30.92
2023-01-29T06:37:43.042Z,30.95
2023-01-29T06:40:10.626Z,29.98
2023-01-29T06:42:37.472Z,30.58
2023-01-29T06:45:04.743Z,31.52
2023-01-29T06:47:31.915Z,30.55
2023-01-29T06:49:59.001Z,30.95
2023-01-29T06:52:28.957Z,27.80
2023-01-29T06:54:59.927Z,29.88
2023-01-29T06:57:30.204Z,30.52
2023-01-29T06:59:57.226Z,29.58
2023-01-29T07:02:24.351Z,29.45
2023-01-29T07:04:51.492Z,30.77
2023-01-29T07:07:19.962Z,29.45
2023-01-29T07:09:46.757Z,30.48
2023-01-29T07:12:13.673Z,29.23
2023-01-29T07:14:40.454Z,30.15
2023-01-29T07:17:07.465Z,28.40
2023-01-29T07:19:34.341Z,30.02
2023-01-29T07:22:04.028Z,31.67
2023-01-29T07:24:33.602Z,29.55
2023-01-29T07:27:00.711Z,31.48
2023-01-29T07:29:27.656Z,35.90
2023-01-29T07:31:54.699Z,36.17
2023-01-29T07:34:21.728Z,33.13
2023-01-29T07:36:48.592Z,32.20
2023-01-29T07:39:15.740Z,31.60
2023-01-29T07:41:46.053Z,31.42
2023-01-29T07:44:12.927Z,31.85
2023-01-29T07:46:42.885Z,29.38
2023-01-29T07:49:09.814Z,28.80
2023-01-29T07:51:36.681Z,29.17
2023-01-29T07:54:03.532Z,30.00
2023-01-29T07:56:30.390Z,28.77
2023-01-29T07:59:02.083Z,28.75
2023-01-29T08:01:29.217Z,30.20
2023-01-29T08:03:56.239Z,29.00
2023-01-29T08:06:23.055Z,29.42
2023-01-29T08:08:50.134Z,29.80
2023-01-29T08:11:17.088Z,33.88
2023-01-29T08:13:44.165Z,31.80
2023-01-29T08:16:11.087Z,31.67
2023-01-29T08:18:38.637Z,30.42
2023-01-29T08:21:05.720Z,32.92
2023-01-29T08:23:32.673Z,31.38
2023-01-29T08:25:59.876Z,30.92
2023-01-29T08:28:27.047Z,31.38
2023-01-29T08:30:54.818Z,30.02
2023-01-29T08:33:39.694Z,29.70
2023-01-29T08:36:08.364Z,29.73
2023-01-29T08:38:35.585Z,29.08
2023-01-29T08:41:02.549Z,29.92
2023-01-29T08:43:29.352Z,28.23
2023-01-29T08:45:56.386Z,29.55
2023-01-29T08:48:23.925Z,30.00
2023-01-29T08:50:51.249Z,29.75
2023-01-29T08:53:19.640Z,30.92
2023-01-29T08:55:46.726Z,28.48
2023-01-29T08:58:13.719Z,31.10
2023-01-29T09:00:40.527Z,30.48
2023-01-29T09:03:08.205Z,29.35
2023-01-29T09:05:36.692Z,31.20
2023-01-29T09:08:04.595Z,30.73
2023-01-29T09:10:31.606Z,30.98
2023-01-29T09:12:58.514Z,31.17
2023-01-29T09:15:25.673Z,30.17
2023-01-29T09:17:52.881Z,29.65
2023-01-29T09:20:20.642Z,31.13
2023-01-29T09:22:49.852Z,29.42
2023-01-29T09:25:16.998Z,32.95
2023-01-29T09:27:43.955Z,30.05
2023-01-29T09:30:11.912Z,30.15
2023-01-29T09:32:54.876Z,29.73
2023-01-29T09:35:23.581Z,28.23
2023-01-29T09:37:51.817Z,28.20
2023-01-29T09:40:27.043Z,30.42
2023-01-29T09:43:09.500Z,27.83
2023-01-29T09:45:39.045Z,27.67
2023-01-29T09:48:12.961Z,28.80
2023-01-29T09:50:44.183Z,28.40
2023-01-29T09:53:36.997Z,29.05
2023-01-29T09:56:14.855Z,28.63
2023-01-29T09:58:44.015Z,27.08
2023-01-29T10:01:20.081Z,26.80
2023-01-29T10:04:02.351Z,29.25
2023-01-29T10:06:47.693Z,28.45
2023-01-29T10:09:33.526Z,29.27
2023-01-29T10:12:12.929Z,26.83
2023-01-29T10:14:47.079Z,28.85
2023-01-29T10:17:49.458Z,28.75
2023-01-29T10:20:34.690Z,26.13
2023-01-29T10:23:04.709Z,26.42
2023-01-29T10:25:36.817Z,26.00
2023-01-29T10:28:04.015Z,26.85
2023-01-29T10:30:48.448Z,25.15
2023-01-29T10:34:01.495Z,25.30
2023-01-29T10:36:42.801Z,25.58
2023-01-29T10:39:21.235Z,24.25
2023-01-29T10:41:54.081Z,25.10
2023-01-29T10:44:36.039Z,23.38
2023-01-29T10:47:30.599Z,24.80
2023-01-29T10:50:00.464Z,24.67
2023-01-29T10:52:32.981Z,22.92
2023-01-29T10:55:19.685Z,26.15
2023-01-29T10:58:04.769Z,28.23
2023-01-29T11:00:40.057Z,26.35
2023-01-29T11:03:27.902Z,25.50
2023-01-29T11:06:17.147Z,24.33
2023-01-29T11:08:56.948Z,24.83
2023-01-29T11:11:34.791Z,24.33
2023-01-29T11:14:07.293Z,23.90
2023-01-29T11:16:42.921Z,23.30
2023-01-29T11:19:11.338Z,21.92
2023-01-29T11:21:57.390Z,22.83
2023-01-29T11:24:25.027Z,23.05
2023-01-29T11:26:55.004Z,23.40
2023-01-29T11:29:28.162Z,21.20
2023-01-29T11:31:55.734Z,22.67
2023-01-29T11:34:25.315Z,22.20
2023-01-29T11:37:15.457Z,21.80
2023-01-29T11:39:51.460Z,21.88
2023-01-29T11:42:23.242Z,22.10
2023-01-29T11:44:50.688Z,21.65
2023-01-29T11:47:29.375Z,21.75
2023-01-29T11:50:02.792Z,21.02
2023-01-29T11:52:40.421Z,22.23
2023-01-29T11:55:17.444Z,22.05
2023-01-29T11:57:51.122Z,22.35
2023-01-29T12:00:49.964Z,21.10
2023-01-29T12:03:28.201Z,20.75
2023-01-29T12:06:01.337Z,23.55
2023-01-29T12:08:36.865Z,22.80
2023-01-29T12:11:26.402Z,24.15
2023-01-29T12:14:21.526Z,22.63
2023-01-29T12:16:57.115Z,21.05
2023-01-29T12:19:46.294Z,22.02
2023-01-29T12:22:16.135Z,23.42
2023-01-29T12:25:00.760Z,22.60
2023-01-29T12:27:42.401Z,21.60
2023-01-29T12:30:31.920Z,22.52
2023-01-29T12:33:21.237Z,22.80
2023-01-29T12:35:55.051Z,21.55
2023-01-29T12:38:23.833Z,21.70
2023-01-29T12:41:05.736Z,22.50
2023-01-29T12:43:44.045Z,21.52
2023-01-29T12:46:23.310Z,20.50
2023-01-29T12:48:53.204Z,22.00
2023-01-29T12:51:30.012Z,21.35
2023-01-29T12:54:05.242Z,20.23
2023-01-29T12:56:53.256Z,21.80
2023-01-29T12:59:34.865Z,20.38
2023-01-29T13:02:36.381Z,22.75
2023-01-29T13:05:39.378Z,21.48
2023-01-29T13:08:12.420Z,17.75
2023-01-29T13:10:45.545Z,21.20
2023-01-29T13:13:24.665Z,20.17
2023-01-29T13:15:53.635Z,19.70
2023-01-29T13:18:24.243Z,19.25
2023-01-29T13:20:51.887Z,18.45
2023-01-29T13:23:27.340Z,20.25
2023-01-29T13:25:54.785Z,18.85
2023-01-29T13:28:25.569Z,19.00
2023-01-29T13:31:36.048Z,19.38
2023-01-29T13:34:13.646Z,18.45
2023-01-29T13:37:01.916Z,16.30
2023-01-29T13:39:34.655Z,16.60
2023-01-29T13:42:15.023Z,16.50
2023-01-29T13:44:46.779Z,15.75
2023-01-29T13:47:31.920Z,16.98
2023-01-29T13:50:17.114Z,16.70
2023-01-29T13:53:05.672Z,16.90
2023-01-29T13:55:38.258Z,17.48
2023-01-29T13:58:32.681Z,16.95
2023-01-29T14:01:01.928Z,14.65
2023-01-29T14:03:35.921Z,16.25
2023-01-29T14:06:38.158Z,17.23
2023-01-29T14:09:25.003Z,17.52
2023-01-29T14:11:52.657Z,17.00
2023-01-29T14:14:48.060Z,16.85
2023-01-29T14:17:20.251Z,16.33
2023-01-29T14:20:15.182Z,17.42
2023-01-29T14:22:42.973Z,16.90
2023-01-29T14:25:19.754Z,18.52
2023-01-29T14:27:50.031Z,16.55
2023-01-29T14:30:19.002Z,16.15
2023-01-29T14:32:54.300Z,18.20
2023-01-29T14:35:25.058Z,17.83
2023-01-29T14:37:56.619Z,22.23
2023-01-29T14:40:28.183Z,18.50
2023-01-29T14:43:22.130Z,18.23
2023-01-29T14:45:49.835Z,18.63
2023-01-29T14:48:37.145Z,18.48
2023-01-29T14:51:12.807Z,18.98
2023-01-29T14:53:51.553Z,18.88
2023-01-29T14:56:34.424Z,17.80
2023-01-29T14:59:39.070Z,18.67
2023-01-29T15:02:18.998Z,17.80
2023-01-29T15:04:51.298Z,19.92
2023-01-29T15:07:23.616Z,18.80
2023-01-29T15:10:18.913Z,19.92
2023-01-29T15:13:01.516Z,19.70
2023-01-29T15:15:46.484Z,19.75
2023-01-29T15:18:17.655Z,19.35
2023-01-29T15:20:44.675Z,20.92
2023-01-29T15:23:27.060Z,20.95
2023-01-29T15:25:57.891Z,18.63
2023-01-29T15:28:25.573Z,19.25
2023-01-29T15:30:55.565Z,17.58
2023-01-29T15:33:22.652Z,18.23
2023-01-29T15:36:06.396Z,18.52
2023-01-29T15:38:33.919Z,18.42
2023-01-29T15:41:03.533Z,18.27
2023-01-29T15:43:42.911Z,17.23
2023-01-29T15:46:19.202Z,19.05
2023-01-29T15:48:49.410Z,18.77
2023-01-29T15:51:19.879Z,18.60
2023-01-29T15:54:03.468Z,20.45
2023-01-29T15:56:38.505Z,19.25
2023-01-29T15:59:09.685Z,17.98
2023-01-29T16:01:37.022Z,18.20
2023-01-29T16:04:04.743Z,19.17
2023-01-29T16:06:39.409Z,18.75
2023-01-29T16:09:07.754Z,17.55
2023-01-29T16:11:39.874Z,18.90
2023-01-29T16:14:08.030Z,18.63
2023-01-29T16:16:35.048Z,18.20
2023-01-29T16:19:01.999Z,19.52
2023-01-29T16:21:31.315Z,18.17
2023-01-29T16:24:22.304Z,20.50
2023-01-29T16:26:52.300Z,19.05
2023-01-29T16:29:23.704Z,20.35
2023-01-29T16:32:02.842Z,17.35
2023-01-29T16:34:40.508Z,19.65
2023-01-29T16:37:21.195Z,18.55
2023-01-29T16:39:54.244Z,20.40
2023-01-29T16:42:24.953Z,19.63
2023-01-29T16:45:07.773Z,18.95
2023-01-29T16:47:38.546Z,20.15
2023-01-29T16:50:17.685Z,21.53
2023-01-29T16:53:12.121Z,21.52
2023-01-29T16:55:46.900Z,19.85
2023-01-29T16:58:18.157Z,20.75
2023-01-29T17:00:59.393Z,19.38
2023-01-29T17:03:30.572Z,21.58
2023-01-29T17:05:58.167Z,20.95
2023-01-29T17:08:33.865Z,22.70
2023-01-29T17:11:01.638Z,22.60
2023-01-29T17:13:31.079Z,19.98
2023-01-29T17:16:03.614Z,22.08
2023-01-29T17:18:30.850Z,21.85
2023-01-29T17:20:57.681Z,21.08
2023-01-29T17:23:24.583Z,21.30
2023-01-29T17:25:51.837Z,20.42
2023-01-29T17:28:18.813Z,21.73
2023-01-29T17:30:56.593Z,21.40
2023-01-29T17:33:32.325Z,20.95
2023-01-29T17:35:59.150Z,20.02
2023-01-29T17:38:26.913Z,19.98
2023-01-29T17:41:04.998Z,20.60
2023-01-29T17:43:32.181Z,19.85
2023-01-29T17:45:59.424Z,20.05
2023-01-29T17:48:30.411Z,20.13
2023-01-29T17:51:00.807Z,19.33
2023-01-29T17:53:43.213Z,18.30
2023-01-29T17:56:28.148Z,21.40
2023-01-29T17:58:55.189Z,20.40
2023-01-29T18:01:22.208Z,19.95
2023-01-29T18:03:49.163Z,20.33
2023-01-29T18:06:28.951Z,21.45
2023-01-29T18:08:59.270Z,20.60
2023-01-29T18:11:26.490Z,20.15
2023-01-29T18:13:53.780Z,19.83
2023-01-29T18:16:24.572Z,21.98
2023-01-29T18:18:52.300Z,21.58
2023-01-29T18:21:19.472Z,22.50
2023-01-29T18:23:46.661Z,22.13
2023-01-29T18:26:16.523Z,21.65
2023-01-29T18:28:43.814Z,21.75
2023-01-29T18:31:13.047Z,21.88
2023-01-29T18:33:40.790Z,22.75
2023-01-29T18:36:10.730Z,21.35
2023-01-29T18:38:37.740Z,22.02
2023-01-29T18:41:13.027Z,22.60
2023-01-29T18:43:41.787Z,22.55
2023-01-29T18:46:09.421Z,22.95
2023-01-29T18:48:36.462Z,22.77
2023-01-29T18:51:03.613Z,22.45
2023-01-29T18:53:30.478Z,22.98
2023-01-29T18:55:59.244Z,23.00
2023-01-29T18:58:35.887Z,23.02
2023-01-29T19:01:11.842Z,22.38
2023-01-29T19:03:41.304Z,24.35
2023-01-29T19:06:10.719Z,23.23
2023-01-29T19:08:38.117Z,23.75
2023-01-29T19:11:05.640Z,24.00
2023-01-29T19:13:32.942Z,23.13
2023-01-29T19:15:59.774Z,20.40
2023-01-29T19:18:27.887Z,24.58
2023-01-29T19:20:55.262Z,23.10
2023-01-29T19:23:22.549Z,25.23
2023-01-29T19:25:49.468Z,24.27
2023-01-29T19:28:16.410Z,26.05
2023-01-29T19:30:43.416Z,25.27
2023-01-29T19:33:11.181Z,25.80
2023-01-29T19:35:38.131Z,27.95
2023-01-29T19:38:05.400Z,24.95
2023-01-29T19:40:32.519Z,25.20
2023-01-29T19:42:59.580Z,25.35
2023-01-29T19:45:37.083Z,25.10
2023-01-29T19:48:17.655Z,25.25
2023-01-29T19:50:51.638Z,26.60
2023-01-29T19:53:18.547Z,26.63
2023-01-29T19:55:45.301Z,27.23
2023-01-29T19:58:12.434Z,22.98
2023-01-29T20:00:39.291Z,28.95
2023-01-29T20:03:07.215Z,30.10
2023-01-29T20:05:36.325Z,28.92
2023-01-29T20:08:03.293Z,28.23
2023-01-29T20:10:30.192Z,26.25
2023-01-29T20:12:57.204Z,28.23
2023-01-29T20:15:24.023Z,27.80
2023-01-29T20:17:50.933Z,27.13
2023-01-29T20:20:18.416Z,26.88
2023-01-29T20:22:45.561Z,27.65
2023-01-29T20:25:13.707Z,28.08
2023-01-29T20:27:40.921Z,29.85
2023-01-29T20:30:08.503Z,28.90
2023-01-29T20:32:35.591Z,28.05
2023-01-29T20:35:02.877Z,28.95
2023-01-29T20:37:29.726Z,26.33
2023-01-29T20:39:56.776Z,29.23
2023-01-29T20:42:23.826Z,29.38
2023-01-29T20:44:50.752Z,29.00
2023-01-29T20:47:17.732Z,29.92
2023-01-29T20:49:44.843Z,29.38
2023-01-29T20:52:12.627Z,28.35
2023-01-29T20:54:40.233Z,30.77
2023-01-29T20:57:07.236Z,29.60
2023-01-29T20:59:34.055Z,29.23
2023-01-29T21:02:00.971Z,30.30
2023-01-29T21:04:31.291Z,27.23
2023-01-29T21:06:58.061Z,29.83
2023-01-29T21:09:27.029Z,29.15
2023-01-29T21:11:54.004Z,23.02
2023-01-29T21:14:20.861Z,26.85
2023-01-29T21:16:47.807Z,27.98
2023-01-29T21:19:15.053Z,27.50
2023-01-29T21:21:41.952Z,26.15
2023-01-29T21:24:09.376Z,28.75
2023-01-29T21:26:38.458Z,28.10
2023-01-29T21:29:05.880Z,26.90
2023-01-29T21:31:40.150Z,28.02
2023-01-29T21:34:07.655Z,26.98
2023-01-29T21:36:36.027Z,30.55
2023-01-29T21:39:16.485Z,31.40
2023-01-29T21:42:08.969Z,31.23
2023-01-29T21:44:36.881Z,29.70
2023-01-29T21:47:12.449Z,29.00
2023-01-29T21:49:44.047Z,29.38
2023-01-29T21:52:12.794Z,28.80
2023-01-29T21:54:40.147Z,29.40
2023-01-29T21:57:11.811Z,31.23
2023-01-29T21:59:38.944Z,32.25
2023-01-29T22:02:06.102Z,28.63
2023-01-29T22:04:33.346Z,27.92
2023-01-29T22:07:00.946Z,28.92
2023-01-29T22:09:28.408Z,27.25
2023-01-29T22:11:55.582Z,29.08
2023-01-29T22:14:22.705Z,26.63
2023-01-29T22:16:49.890Z,30.13
2023-01-29T22:19:16.775Z,27.27
2023-01-29T22:21:43.853Z,29.52
2023-01-29T22:24:10.893Z,29.00
2023-01-29T22:26:37.755Z,29.27
2023-01-29T22:29:04.692Z,27.05
2023-01-29T22:31:31.573Z,30.02
2023-01-29T22:33:58.569Z,30.27
2023-01-29T22:36:25.575Z,29.23
2023-01-29T22:38:52.349Z,30.23
2023-01-29T22:41:19.277Z,30.75
2023-01-29T22:43:46.118Z,30.73
2023-01-29T22:46:13.325Z,31.25
2023-01-29T22:48:40.389Z,29.60
2023-01-29T22:51:10.164Z,29.63
2023-01-29T22:53:39.161Z,32.30
2023-01-29T22:56:07.039Z,32.50
2023-01-29T22:58:33.943Z,33.58
2023-01-29T23:01:00.780Z,32.03
2023-01-29T23:03:27.765Z,32.70
2023-01-29T23:05:55.004Z,30.42
2023-01-29T23:08:21.869Z,30.67
2023-01-29T23:10:48.653Z,31.02
2023-01-29T23:13:15.609Z,28.95
2023-01-29T23:15:42.582Z,28.70
2023-01-29T23:18:09.559Z,28.77
2023-01-29T23:20:36.485Z,30.05
2023-01-29T23:23:03.510Z,30.50
2023-01-29T23:25:50.703Z,30.08
2023-01-29T23:28:17.679Z,28.75
2023-01-29T23:30:45.323Z,29.42
2023-01-29T23:33:12.396Z,29.30
2023-01-29T23:35:39.362Z,28.20
2023-01-29T23:38:06.343Z,28.63
2023-01-29T23:40:33.482Z,27.85
2023-01-29T23:43:00.516Z,26.88
2023-01-29T23:45:27.380Z,27.00
2023-01-29T23:47:54.397Z,26.83
2023-01-29T23:50:21.439Z,26.27
2023-01-29T23:52:48.439Z,25.83
2023-01-29T23:55:15.501Z,25.83
2023-01-29T23:57:42.343Z,26.38
